Wetterdaten: Woche 12.12.22 - 18.12.22 (KW50)
Datum Zeit Temp. Aussen Temp. o. S. Temp +5cm Feuchte Auss Luftdruck Regen Sonnenschein Regendauer Solar Windben Empfang
12.12.2022 00:00 0,5 C 0,0 C -2,8 C 92 % 1011,0 hPa 0,0 l/m 0,00 h 0,00 h 0 W/m 0,0 km/h (0 Bft) 97,79 %
12.12.2022 01:00 0,4 C 0,0 C -2,7 C 93 % 1011,2 hPa 0,0 l/m 0,00 h 0,00 h 0 W/m 0,5 km/h (0 Bft) 97,37 %
12.12.2022 02:00 0,2 C -0,8 C -3,1 C 93 % 1011,5 hPa 0,0 l/m 0,00 h 0,00 h 0 W/m 1,0 km/h (0 Bft) 96,87 %
12.12.2022 03:00 -0,5 C -1,7 C -3,9 C 93 % 1011,6 hPa 0,0 l/m 0,00 h 0,00 h 0 W/m 0,4 km/h (0 Bft) 98,44 %
12.12.2022 04:00 -0,7 C -1,3 C -3,4 C 94 % 1011,7 hPa 0,0 l/m 0,00 h 0,00 h 0 W/m 0,7 km/h (0 Bft) 97,55 %
12.12.2022 05:00 -0,7 C -1,4 C -3,3 C 95 % 1012,0 hPa 0,0 l/m 0,00 h 0,00 h 0 W/m 0,0 km/h (0 Bft) 95,92 %
12.12.2022 06:00 -1,1 C -2,2 C -4,1 C 95 % 1012,1 hPa 0,0 l/m 0,00 h 0,00 h 0 W/m 0,0 km/h (0 Bft) 95,96 %
12.12.2022 07:00 -1,9 C -3,5 C -5,4 C 94 % 1012,5 hPa 0,0 l/m 0,00 h 0,00 h 0 W/m 0,0 km/h (0 Bft) 97,31 %
12.12.2022 08:00 -2,7 C -3,3 C -5,1 C 94 % 1012,9 hPa 0,0 l/m 0,00 h 0,00 h 8 W/m 0,0 km/h (0 Bft) 98,93 %
12.12.2022 09:00 -3,0 C -3,0 C -5,1 C 94 % 1013,2 hPa 0,0 l/m 0,00 h 0,00 h 26 W/m 0,0 km/h (0 Bft) 94,37 %
12.12.2022 10:00 -2,0 C -1,5 C -3,9 C 95 % 1013,4 hPa 0,0 l/m 0,77 h 0,00 h 154 W/m 3,0 km/h (1 Bft) 91,57 %
12.12.2022 11:00 -0,5 C -0,6 C -3,1 C 96 % 1013,5 hPa 0,0 l/m 0,07 h 0,03 h 72 W/m 5,3 km/h (1 Bft) 94,17 %
12.12.2022 12:00 0,1 C 2,1 C -2,4 C 95 % 1013,1 hPa 0,0 l/m 0,27 h 0,00 h 132 W/m 7,5 km/h (2 Bft) 97,90 %
12.12.2022 13:00 1,8 C 4,3 C -1,8 C 89 % 1012,8 hPa 0,0 l/m 1,00 h 0,00 h 241 W/m 9,6 km/h (2 Bft) 97,87 %
12.12.2022 14:00 2,0 C 1,5 C -1,9 C 84 % 1012,7 hPa 0,0 l/m 0,87 h 0,00 h 132 W/m 9,3 km/h (2 Bft) 96,51 %
12.12.2022 15:00 1,4 C 0,5 C -2,4 C 83 % 1012,6 hPa 0,0 l/m 0,10 h 0,00 h 31 W/m 3,7 km/h (1 Bft) 97,94 %
12.12.2022 16:00 0,6 C -1,2 C -4,0 C 83 % 1012,9 hPa 0,0 l/m 0,00 h 0,00 h 9 W/m 0,6 km/h (0 Bft) 96,15 %
12.12.2022 17:00 -0,8 C -3,1 C -5,4 C 83 % 1013,1 hPa 0,0 l/m 0,00 h 0,00 h 0 W/m 0,0 km/h (0 Bft) 97,56 %
12.12.2022 18:00 -2,1 C -3,6 C -5,8 C 86 % 1013,1 hPa 0,0 l/m 0,00 h 0,00 h 0 W/m 0,2 km/h (0 Bft) 95,10 %
12.12.2022 19:00 -2,8 C -4,0 C -6,0 C 88 % 1013,1 hPa 0,0 l/m 0,00 h 0,00 h 0 W/m 0,0 km/h (0 Bft) 96,30 %
12.12.2022 20:00 -3,1 C -4,0 C -6,1 C 90 % 1013,0 hPa 0,0 l/m 0,00 h 0,00 h 0 W/m 0,1 km/h (0 Bft) 95,37 %
12.12.2022 21:00 -2,9 C -4,0 C -6,5 C 92 % 1013,1 hPa 0,0 l/m 0,00 h 0,00 h 0 W/m 0,0 km/h (0 Bft) 98,08 %
12.12.2022 22:00 -3,3 C -4,2 C -6,5 C 92 % 1013,2 hPa 0,0 l/m 0,00 h 0,00 h 0 W/m 0,3 km/h (0 Bft) 96,46 %
12.12.2022 23:00 -3,1 C -3,4 C -5,7 C 94 % 1013,3 hPa 0,0 l/m 0,00 h 0,00 h 0 W/m 3,1 km/h (1 Bft) 97,72 %
13.12.2022 00:00 -3,1 C -4,3 C -6,2 C 94 % 1013,0 hPa 0,0 l/m 0,00 h 0,00 h 0 W/m 0,6 km/h (0 Bft) 96,03 %
13.12.2022 01:00 -3,8 C -4,8 C -6,7 C 94 % 1012,7 hPa 0,0 l/m 0,00 h 0,00 h 0 W/m 0,1 km/h (0 Bft) 96,80 %
13.12.2022 02:00 -3,9 C -4,6 C -6,5 C 94 % 1012,7 hPa 0,0 l/m 0,00 h 0,00 h 0 W/m 1,3 km/h (1 Bft) 99,04 %
13.12.2022 03:00 -4,1 C -4,6 C -6,5 C 94 % 1012,7 hPa 0,0 l/m 0,00 h 0,00 h 0 W/m 2,0 km/h (1 Bft) 94,75 %
13.12.2022 04:00 -4,0 C -4,5 C -6,2 C 95 % 1012,5 hPa 0,0 l/m 0,00 h 0,00 h 0 W/m 2,0 km/h (1 Bft) 94,68 %
13.12.2022 05:00 -4,5 C -5,3 C -7,0 C 95 % 1012,2 hPa 0,0 l/m 0,00 h 0,00 h 0 W/m 0,9 km/h (0 Bft) 97,48 %
13.12.2022 06:00 -4,7 C -5,2 C -6,7 C 95 % 1012,0 hPa 0,0 l/m 0,00 h 0,00 h 0 W/m 2,6 km/h (1 Bft) 96,16 %
13.12.2022 07:00 -4,7 C -5,3 C -6,7 C 95 % 1012,0 hPa 0,0 l/m 0,00 h 0,00 h 0 W/m 8,7 km/h (2 Bft) 97,22 %
13.12.2022 08:00 -4,9 C -5,6 C -7,2 C 94 % 1012,1 hPa 0,0 l/m 0,00 h 0,00 h 8 W/m 6,2 km/h (2 Bft) 95,85 %
13.12.2022 09:00 -4,7 C -4,9 C -6,8 C 94 % 1012,2 hPa 0,0 l/m 0,00 h 0,00 h 20 W/m 6,4 km/h (2 Bft) 98,37 %
13.12.2022 10:00 -3,9 C -3,5 C -5,8 C 94 % 1012,4 hPa 0,0 l/m 0,18 h 0,00 h 85 W/m 9,1 km/h (2 Bft) 94,58 %
13.12.2022 11:00 -2,7 C -2,2 C -4,9 C 93 % 1011,9 hPa 0,0 l/m 0,03 h 0,00 h 100 W/m 10,7 km/h (2 Bft) 98,72 %
13.12.2022 12:00 -1,5 C 0,0 C -4,1 C 89 % 1011,2 hPa 0,0 l/m 0,33 h 0,00 h 143 W/m 12,7 km/h (3 Bft) 96,40 %
13.12.2022 13:00 0,0 C 1,8 C -3,4 C 82 % 1010,8 hPa 0,0 l/m 1,00 h 0,00 h 267 W/m 12,8 km/h (3 Bft) 90,06 %
13.12.2022 14:00 0,2 C 0,0 C -3,3 C 80 % 1010,6 hPa 0,0 l/m 0,43 h 0,00 h 111 W/m 9,5 km/h (2 Bft) 98,59 %
13.12.2022 15:00 -0,2 C -0,8 C -3,5 C 80 % 1010,2 hPa 0,0 l/m 0,03 h 0,00 h 42 W/m 6,2 km/h (2 Bft) 96,01 %
13.12.2022 16:00 -0,6 C -1,6 C -4,2 C 82 % 1009,7 hPa 0,0 l/m 0,00 h 0,00 h 11 W/m 5,3 km/h (1 Bft) 97,93 %
13.12.2022 17:00 -1,1 C -2,2 C -4,9 C 84 % 1009,2 hPa 0,0 l/m 0,00 h 0,00 h 0 W/m 3,0 km/h (1 Bft) 97,22 %
13.12.2022 18:00 -1,4 C -2,1 C -4,8 C 85 % 1009,0 hPa 0,0 l/m 0,00 h 0,00 h 0 W/m 5,1 km/h (1 Bft) 97,79 %
13.12.2022 19:00 -1,2 C -1,8 C -4,4 C 82 % 1008,9 hPa 0,0 l/m 0,00 h 0,00 h 0 W/m 8,3 km/h (2 Bft) 94,49 %
13.12.2022 20:00 -1,4 C -2,2 C -4,8 C 81 % 1008,5 hPa 0,0 l/m 0,00 h 0,00 h 0 W/m 10,4 km/h (2 Bft) 97,52 %
13.12.2022 21:00 -1,4 C -2,2 C -5,0 C 80 % 1007,8 hPa 0,0 l/m 0,00 h 0,00 h 0 W/m 7,2 km/h (2 Bft) 95,72 %
13.12.2022 22:00 -1,6 C -2,2 C -5,1 C 79 % 1006,9 hPa 0,0 l/m 0,00 h 0,00 h 0 W/m 7,9 km/h (2 Bft) 97,72 %
13.12.2022 23:00 -1,9 C -2,7 C -5,6 C 79 % 1006,4 hPa 0,0 l/m 0,00 h 0,00 h 0 W/m 7,0 km/h (2 Bft) 98,63 %
14.12.2022 00:00 -2,0 C -2,8 C -5,6 C 78 % 1006,0 hPa 0,0 l/m 0,00 h 0,00 h 0 W/m 6,1 km/h (2 Bft) 96,29 %
14.12.2022 01:00 -1,9 C -2,3 C -5,3 C 77 % 1005,4 hPa 0,0 l/m 0,00 h 0,00 h 0 W/m 8,0 km/h (2 Bft) 96,10 %
14.12.2022 02:00 -1,7 C -2,3 C -5,4 C 76 % 1004,7 hPa 0,0 l/m 0,00 h 0,00 h 0 W/m 9,2 km/h (2 Bft) 95,86 %
14.12.2022 03:00 -2,0 C -3,0 C -5,8 C 77 % 1004,1 hPa 0,0 l/m 0,00 h 0,00 h 0 W/m 4,7 km/h (1 Bft) 99,23 %
14.12.2022 04:00 -2,8 C -3,9 C -6,7 C 81 % 1003,6 hPa 0,0 l/m 0,00 h 0,00 h 0 W/m 1,5 km/h (1 Bft) 95,79 %
14.12.2022 05:00 -3,2 C -3,9 C -6,7 C 84 % 1003,3 hPa 0,0 l/m 0,00 h 0,00 h 0 W/m 0,7 km/h (0 Bft) 98,51 %
14.12.2022 06:00 -3,2 C -3,9 C -6,7 C 86 % 1002,6 hPa 0,0 l/m 0,00 h 0,00 h 0 W/m 1,9 km/h (1 Bft) 96,22 %
14.12.2022 07:00 -2,9 C -3,3 C -6,1 C 86 % 1002,2 hPa 0,0 l/m 0,00 h 0,00 h 0 W/m 3,4 km/h (1 Bft) 94,83 %
14.12.2022 08:00 -2,3 C -2,5 C -5,6 C 83 % 1002,1 hPa 0,0 l/m 0,00 h 0,00 h 7 W/m 5,6 km/h (1 Bft) 96,68 %
14.12.2022 09:00 -1,8 C -2,0 C -5,0 C 80 % 1002,4 hPa 0,0 l/m 0,00 h 0,00 h 26 W/m 2,5 km/h (1 Bft) 96,49 %
14.12.2022 10:00 -1,4 C -1,2 C -4,7 C 82 % 1002,6 hPa 0,0 l/m 0,00 h 0,00 h 60 W/m 2,6 km/h (1 Bft) 96,72 %
14.12.2022 11:00 -0,9 C -0,4 C -4,1 C 78 % 1002,6 hPa 0,0 l/m 0,00 h 0,00 h 94 W/m 4,2 km/h (1 Bft) 97,15 %
14.12.2022 12:00 -0,3 C 0,0 C -3,7 C 75 % 1002,4 hPa 0,0 l/m 0,00 h 0,00 h 113 W/m 7,8 km/h (2 Bft) 94,86 %
14.12.2022 13:00 0,4 C 1,1 C -4,1 C 74 % 1002,6 hPa 0,0 l/m 0,70 h 0,00 h 199 W/m 4,1 km/h (1 Bft) 89,39 %
14.12.2022 14:00 0,8 C 0,0 C -4,4 C 72 % 1002,7 hPa 0,0 l/m 0,90 h 0,00 h 137 W/m 2,7 km/h (1 Bft) 98,68 %
14.12.2022 15:00 0,1 C -1,5 C -5,0 C 74 % 1002,9 hPa 0,0 l/m 0,03 h 0,00 h 32 W/m 1,6 km/h (1 Bft) 97,14 %
14.12.2022 16:00 -1,0 C -3,0 C -6,3 C 77 % 1003,5 hPa 0,0 l/m 0,00 h 0,00 h 8 W/m 0,2 km/h (0 Bft) 98,01 %
14.12.2022 17:00 -2,3 C -4,1 C -7,3 C 80 % 1004,0 hPa 0,0 l/m 0,00 h 0,00 h 0 W/m 0,0 km/h (0 Bft) 93,84 %
14.12.2022 18:00 -3,4 C -4,7 C -7,8 C 83 % 1004,5 hPa 0,0 l/m 0,00 h 0,00 h 0 W/m 0,0 km/h (0 Bft) 97,18 %
14.12.2022 19:00 -4,0 C -5,2 C -8,2 C 86 % 1004,7 hPa 0,0 l/m 0,00 h 0,00 h 0 W/m 0,0 km/h (0 Bft) 97,08 %
14.12.2022 20:00 -4,6 C -5,9 C -8,8 C 87 % 1005,2 hPa 0,0 l/m 0,00 h 0,00 h 0 W/m 0,0 km/h (0 Bft) 90,03 %
14.12.2022 21:00 -5,1 C -6,4 C -9,0 C 89 % 1005,8 hPa 0,0 l/m 0,00 h 0,00 h 0 W/m 0,0 km/h (0 Bft) 82,88 %
14.12.2022 22:00 -5,9 C -6,9 C -9,4 C 89 % 1006,3 hPa 0,0 l/m 0,00 h 0,00 h 0 W/m 0,0 km/h (0 Bft) 94,35 %
14.12.2022 23:00 -6,3 C -7,1 C -9,4 C 90 % 1006,4 hPa 0,0 l/m 0,00 h 0,00 h 0 W/m 0,1 km/h (0 Bft) 92,46 %
15.12.2022 00:00 -6,7 C -7,8 C -10,0 C 90 % 1006,8 hPa 0,0 l/m 0,00 h 0,00 h 0 W/m 0,0 km/h (0 Bft) 83,96 %
15.12.2022 01:00 -7,1 C -7,8 C -10,0 C 91 % 1007,1 hPa 0,0 l/m 0,00 h 0,00 h 0 W/m 0,0 km/h (0 Bft) 94,78 %
15.12.2022 02:00 -7,1 C -7,6 C -9,7 C 91 % 1007,5 hPa 0,0 l/m 0,00 h 0,00 h 0 W/m 0,7 km/h (0 Bft) 93,14 %
15.12.2022 03:00 -6,7 C -7,4 C -9,4 C 92 % 1007,9 hPa 0,0 l/m 0,00 h 0,00 h 0 W/m 0,0 km/h (0 Bft) 95,66 %
15.12.2022 04:00 -6,8 C -7,5 C -9,4 C 93 % 1008,4 hPa 0,0 l/m 0,00 h 0,00 h 0 W/m 0,0 km/h (0 Bft) 89,95 %
15.12.2022 05:00 -6,7 C -7,2 C -9,3 C 93 % 1008,6 hPa 0,0 l/m 0,00 h 0,00 h 0 W/m 3,2 km/h (1 Bft) 91,98 %
15.12.2022 06:00 -6,7 C -7,2 C -9,2 C 93 % 1009,0 hPa 0,0 l/m 0,00 h 0,00 h 0 W/m 0,6 km/h (0 Bft) 94,63 %
15.12.2022 07:00 -6,6 C -7,2 C -9,1 C 94 % 1009,3 hPa 0,0 l/m 0,00 h 0,00 h 0 W/m 0,0 km/h (0 Bft) 93,09 %
15.12.2022 08:00 -6,7 C -7,2 C -9,0 C 94 % 1009,7 hPa 0,0 l/m 0,00 h 0,00 h 8 W/m 6,0 km/h (2 Bft) 97,23 %
15.12.2022 09:00 -6,4 C -6,5 C -8,7 C 94 % 1010,0 hPa 0,0 l/m 0,00 h 0,00 h 21 W/m 7,8 km/h (2 Bft) 98,65 %
15.12.2022 10:00 -5,6 C -5,5 C -8,0 C 95 % 1010,6 hPa 0,0 l/m 0,00 h 0,00 h 66 W/m 12,8 km/h (3 Bft) 95,09 %
15.12.2022 11:00 -4,4 C -3,6 C -6,6 C 95 % 1010,9 hPa 0,0 l/m 0,00 h 0,00 h 105 W/m 9,9 km/h (2 Bft) 98,36 %
15.12.2022 12:00 -3,7 C -2,8 C -6,1 C 95 % 1010,7 hPa 0,0 l/m 0,27 h 0,00 h 128 W/m 11,1 km/h (2 Bft) 96,09 %
15.12.2022 13:00 -3,3 C -2,6 C -6,1 C 95 % 1010,5 hPa 0,0 l/m 0,40 h 0,00 h 123 W/m 13,5 km/h (3 Bft) 95,72 %
15.12.2022 14:00 -2,7 C -2,6 C -5,7 C 95 % 1009,6 hPa 0,0 l/m 0,83 h 0,00 h 126 W/m 8,1 km/h (2 Bft) 99,29 %
15.12.2022 15:00 -2,4 C -2,9 C -5,7 C 94 % 1009,1 hPa 0,0 l/m 0,10 h 0,00 h 35 W/m 4,1 km/h (1 Bft) 96,10 %
15.12.2022 16:00 -2,7 C -3,8 C -6,5 C 93 % 1009,1 hPa 0,0 l/m 0,00 h 0,00 h 8 W/m 1,2 km/h (1 Bft) 94,38 %
15.12.2022 17:00 -3,4 C -4,4 C -6,7 C 93 % 1009,7 hPa 0,0 l/m 0,00 h 0,00 h 0 W/m 3,4 km/h (1 Bft) 95,07 %
15.12.2022 18:00 -4,0 C -5,0 C -7,1 C 93 % 1010,1 hPa 0,0 l/m 0,00 h 0,00 h 0 W/m 4,1 km/h (1 Bft) 65,10 %
15.12.2022 19:00 -4,4 C -5,5 C -7,5 C 94 % 1010,2 hPa 0,0 l/m 0,00 h 0,00 h 0 W/m 2,6 km/h (1 Bft) 68,81 %
15.12.2022 20:00 -5,2 C -6,3 C -8,2 C 93 % 1010,0 hPa 0,0 l/m 0,00 h 0,00 h 0 W/m 1,8 km/h (1 Bft) 95,44 %
15.12.2022 21:00 -5,5 C -6,2 C -8,0 C 94 % 1010,0 hPa 0,0 l/m 0,00 h 0,00 h 0 W/m 3,2 km/h (1 Bft) 96,44 %
15.12.2022 22:00 -5,5 C -6,2 C -8,0 C 94 % 1010,1 hPa 0,0 l/m 0,00 h 0,00 h 0 W/m 2,1 km/h (1 Bft) 94,11 %
15.12.2022 23:00 -6,0 C -7,3 C -8,8 C 94 % 1010,3 hPa 0,0 l/m 0,00 h 0,00 h 0 W/m 0,4 km/h (0 Bft) 98,19 %
16.12.2022 00:00 -6,5 C -7,5 C -9,1 C 94 % 1010,5 hPa 0,0 l/m 0,00 h 0,00 h 0 W/m 0,4 km/h (0 Bft) 95,22 %
16.12.2022 01:00 -6,6 C -7,2 C -8,9 C 94 % 1010,6 hPa 0,0 l/m 0,00 h 0,00 h 0 W/m 3,2 km/h (1 Bft) 96,08 %
16.12.2022 02:00 -6,7 C -7,6 C -9,0 C 95 % 1010,9 hPa 0,0 l/m 0,00 h 0,00 h 0 W/m 1,0 km/h (0 Bft) 96,88 %
16.12.2022 03:00 -6,9 C -7,8 C -9,0 C 95 % 1011,2 hPa 0,0 l/m 0,00 h 0,00 h 0 W/m 2,9 km/h (1 Bft) 94,86 %
16.12.2022 04:00 -7,1 C -7,8 C -9,1 C 95 % 1011,3 hPa 0,0 l/m 0,00 h 0,00 h 0 W/m 1,9 km/h (1 Bft) 95,14 %
16.12.2022 05:00 -7,2 C -7,8 C -9,4 C 95 % 1011,8 hPa 0,0 l/m 0,00 h 0,00 h 0 W/m 1,8 km/h (1 Bft) 94,00 %
16.12.2022 06:00 -7,4 C -8,2 C -9,6 C 95 % 1012,3 hPa 0,0 l/m 0,00 h 0,00 h 0 W/m 1,5 km/h (1 Bft) 98,29 %
16.12.2022 07:00 -7,7 C -8,1 C -9,7 C 94 % 1013,0 hPa 0,0 l/m 0,00 h 0,00 h 0 W/m 0,7 km/h (0 Bft) 92,82 %
16.12.2022 08:00 -7,1 C -7,0 C -8,8 C 95 % 1013,7 hPa 0,0 l/m 0,00 h 0,00 h 10 W/m 2,7 km/h (1 Bft) 93,98 %
16.12.2022 09:00 -6,1 C -6,0 C -7,7 C 95 % 1014,6 hPa 0,0 l/m 0,00 h 0,00 h 21 W/m 2,5 km/h (1 Bft) 95,89 %
16.12.2022 10:00 -5,2 C -5,0 C -7,0 C 95 % 1015,4 hPa 0,0 l/m 0,00 h 0,00 h 28 W/m 2,9 km/h (1 Bft) 96,03 %
16.12.2022 11:00 -4,0 C -3,8 C -6,1 C 96 % 1015,8 hPa 0,0 l/m 0,00 h 0,00 h 46 W/m 1,7 km/h (1 Bft) 96,03 %
16.12.2022 12:00 -3,2 C -3,0 C -5,2 C 96 % 1016,0 hPa 0,0 l/m 0,00 h 0,00 h 51 W/m 2,1 km/h (1 Bft) 97,28 %
16.12.2022 13:00 -2,4 C -2,2 C -4,5 C 96 % 1016,2 hPa 0,0 l/m 0,00 h 0,00 h 56 W/m 0,4 km/h (0 Bft) 97,59 %
16.12.2022 14:00 -1,8 C -1,7 C -4,0 C 96 % 1016,5 hPa 0,0 l/m 0,00 h 0,00 h 41 W/m 0,0 km/h (0 Bft) 94,95 %
16.12.2022 15:00 -1,5 C -1,7 C -3,9 C 95 % 1017,2 hPa 0,0 l/m 0,00 h 0,00 h 19 W/m 0,0 km/h (0 Bft) 97,58 %
16.12.2022 16:00 -1,4 C -1,7 C -3,9 C 95 % 1018,1 hPa 0,0 l/m 0,00 h 0,00 h 5 W/m 0,0 km/h (0 Bft) 97,08 %
16.12.2022 17:00 -1,3 C -1,7 C -3,9 C 95 % 1018,9 hPa 0,0 l/m 0,00 h 0,00 h 0 W/m 0,0 km/h (0 Bft) 95,38 %
16.12.2022 18:00 -1,1 C -1,5 C -3,9 C 95 % 1019,6 hPa 0,0 l/m 0,00 h 0,00 h 0 W/m 0,1 km/h (0 Bft) 96,13 %
16.12.2022 19:00 -0,6 C -1,1 C -3,9 C 95 % 1020,1 hPa 0,0 l/m 0,00 h 0,00 h 0 W/m 0,0 km/h (0 Bft) 96,05 %
16.12.2022 20:00 -0,6 C -1,2 C -3,9 C 95 % 1020,7 hPa 0,0 l/m 0,00 h 0,00 h 0 W/m 0,3 km/h (0 Bft) 93,02 %
16.12.2022 21:00 -0,9 C -1,7 C -3,9 C 96 % 1021,2 hPa 0,0 l/m 0,00 h 0,00 h 0 W/m 2,3 km/h (1 Bft) 85,04 %
16.12.2022 22:00 -1,2 C -1,9 C -3,9 C 96 % 1022,0 hPa 0,0 l/m 0,00 h 0,00 h 0 W/m 3,1 km/h (1 Bft) 85,20 %
16.12.2022 23:00 -1,5 C -2,2 C -3,9 C 96 % 1022,6 hPa 0,0 l/m 0,00 h 0,00 h 0 W/m 3,0 km/h (1 Bft) 94,22 %
17.12.2022 00:00 -1,7 C -2,2 C -3,9 C 96 % 1023,1 hPa 0,0 l/m 0,00 h 0,00 h 0 W/m 3,2 km/h (1 Bft) 95,25 %
17.12.2022 01:00 -1,6 C -2,2 C -3,9 C 96 % 1023,3 hPa 0,0 l/m 0,00 h 0,00 h 0 W/m 3,1 km/h (1 Bft) 96,60 %
17.12.2022 02:00 -1,8 C -2,2 C -3,9 C 97 % 1023,7 hPa 0,0 l/m 0,00 h 0,00 h 0 W/m 3,9 km/h (1 Bft) 93,55 %
17.12.2022 03:00 -1,9 C -2,2 C -4,0 C 97 % 1024,1 hPa 0,0 l/m 0,00 h 0,00 h 0 W/m 5,4 km/h (1 Bft) 96,66 %
17.12.2022 04:00 -2,0 C -2,2 C -4,2 C 97 % 1024,4 hPa 0,0 l/m 0,00 h 0,00 h 0 W/m 5,2 km/h (1 Bft) 96,80 %
17.12.2022 05:00 -1,9 C -2,2 C -3,9 C 96 % 1024,7 hPa 0,0 l/m 0,00 h 0,00 h 0 W/m 5,1 km/h (1 Bft) 90,37 %
17.12.2022 06:00 -1,8 C -2,2 C -3,9 C 96 % 1025,0 hPa 0,0 l/m 0,00 h 0,00 h 0 W/m 5,5 km/h (1 Bft) 95,29 %
17.12.2022 07:00 -1,9 C -2,2 C -4,1 C 96 % 1025,4 hPa 0,0 l/m 0,00 h 0,00 h 0 W/m 6,1 km/h (2 Bft) 94,70 %
17.12.2022 08:00 -2,1 C -2,4 C -4,4 C 95 % 1025,9 hPa 0,0 l/m 0,00 h 0,00 h 4 W/m 6,8 km/h (2 Bft) 97,37 %
17.12.2022 09:00 -2,3 C -2,9 C -4,7 C 94 % 1026,6 hPa 0,0 l/m 0,00 h 0,00 h 13 W/m 12,7 km/h (3 Bft) 96,73 %
17.12.2022 10:00 -2,8 C -3,3 C -5,0 C 94 % 1027,1 hPa 0,0 l/m 0,00 h 0,00 h 23 W/m 8,8 km/h (2 Bft) 97,94 %
17.12.2022 11:00 -3,3 C -3,8 C -5,6 C 94 % 1027,5 hPa 0,0 l/m 0,00 h 0,00 h 39 W/m 11,1 km/h (2 Bft) 94,83 %
17.12.2022 12:00 -3,5 C -3,8 C -5,6 C 95 % 1027,7 hPa 0,0 l/m 0,00 h 0,00 h 44 W/m 9,3 km/h (2 Bft) 95,77 %
17.12.2022 13:00 -3,5 C -3,7 C -5,6 C 95 % 1027,5 hPa 0,0 l/m 0,00 h 0,00 h 49 W/m 9,0 km/h (2 Bft) 98,97 %
17.12.2022 14:00 -3,5 C -3,7 C -5,6 C 95 % 1027,3 hPa 0,0 l/m 0,00 h 0,00 h 37 W/m 8,6 km/h (2 Bft) 93,97 %
17.12.2022 15:00 -3,8 C -4,3 C -6,0 C 94 % 1027,4 hPa 0,0 l/m 0,00 h 0,00 h 22 W/m 12,1 km/h (2 Bft) 95,71 %
17.12.2022 16:00 -4,1 C -4,9 C -6,6 C 94 % 1027,6 hPa 0,0 l/m 0,00 h 0,00 h 9 W/m 2,2 km/h (1 Bft) 96,87 %
17.12.2022 17:00 -4,8 C -5,9 C -7,5 C 94 % 1027,8 hPa 0,0 l/m 0,00 h 0,00 h 0 W/m 0,2 km/h (0 Bft) 97,94 %
17.12.2022 18:00 -5,1 C -5,7 C -7,3 C 94 % 1028,1 hPa 0,0 l/m 0,00 h 0,00 h 0 W/m 1,4 km/h (1 Bft) 94,22 %
17.12.2022 19:00 -4,9 C -5,6 C -7,2 C 94 % 1028,2 hPa 0,0 l/m 0,00 h 0,00 h 0 W/m 2,9 km/h (1 Bft) 95,97 %
17.12.2022 20:00 -5,1 C -5,6 C -7,2 C 94 % 1028,4 hPa 0,0 l/m 0,00 h 0,00 h 0 W/m 4,2 km/h (1 Bft) 95,69 %
17.12.2022 21:00 -5,0 C -5,6 C -7,2 C 94 % 1028,7 hPa 0,0 l/m 0,00 h 0,00 h 0 W/m 9,1 km/h (2 Bft) 91,96 %
17.12.2022 22:00 -4,8 C -5,1 C -7,2 C 94 % 1028,8 hPa 0,0 l/m 0,00 h 0,00 h 0 W/m 11,8 km/h (2 Bft) 90,17 %
17.12.2022 23:00 -4,8 C -5,4 C -7,2 C 93 % 1029,2 hPa 0,0 l/m 0,00 h 0,00 h 0 W/m 4,7 km/h (1 Bft) 90,19 %
18.12.2022 00:00 -5,0 C -5,7 C -7,3 C 92 % 1029,3 hPa 0,0 l/m 0,00 h 0,00 h 0 W/m 4,0 km/h (1 Bft) 92,82 %
18.12.2022 01:00 -5,2 C -5,7 C -7,5 C 92 % 1029,1 hPa 0,0 l/m 0,00 h 0,00 h 0 W/m 6,0 km/h (2 Bft) 80,36 %
18.12.2022 02:00 -5,0 C -5,6 C -7,2 C 91 % 1029,0 hPa 0,0 l/m 0,00 h 0,00 h 0 W/m 11,9 km/h (2 Bft) 89,08 %
18.12.2022 03:00 -5,2 C -5,9 C -7,8 C 91 % 1029,0 hPa 0,0 l/m 0,00 h 0,00 h 0 W/m 7,8 km/h (2 Bft) 95,69 %
18.12.2022 04:00 -5,2 C -6,0 C -7,8 C 91 % 1028,8 hPa 0,0 l/m 0,00 h 0,00 h 0 W/m 6,7 km/h (2 Bft) 94,26 %
18.12.2022 05:00 -5,0 C -5,6 C -7,4 C 91 % 1028,5 hPa 0,0 l/m 0,00 h 0,00 h 0 W/m 8,8 km/h (2 Bft) 93,56 %
18.12.2022 06:00 -4,7 C -5,2 C -7,3 C 91 % 1028,4 hPa 0,0 l/m 0,00 h 0,00 h 0 W/m 13,2 km/h (3 Bft) 97,20 %
18.12.2022 07:00 -4,4 C -5,1 C -7,2 C 90 % 1028,6 hPa 0,0 l/m 0,00 h 0,00 h 0 W/m 12,3 km/h (3 Bft) 93,43 %
18.12.2022 08:00 -4,2 C -4,5 C -6,9 C 89 % 1028,3 hPa 0,0 l/m 0,00 h 0,00 h 9 W/m 14,3 km/h (3 Bft) 95,87 %
18.12.2022 09:00 -3,8 C -3,9 C -6,5 C 88 % 1027,7 hPa 0,0 l/m 0,00 h 0,00 h 35 W/m 17,3 km/h (3 Bft) 96,28 %
18.12.2022 10:00 -2,5 C -2,3 C -5,3 C 86 % 1027,4 hPa 0,0 l/m 0,50 h 0,00 h 104 W/m 22,2 km/h (4 Bft) 96,43 %
18.12.2022 11:00 -1,4 C -1,3 C -4,4 C 82 % 1026,8 hPa 0,0 l/m 0,00 h 0,00 h 116 W/m 22,5 km/h (4 Bft) 95,91 %
18.12.2022 12:00 -0,9 C -0,8 C -3,9 C 79 % 1026,1 hPa 0,0 l/m 0,00 h 0,00 h 120 W/m 27,1 km/h (4 Bft) 98,13 %
18.12.2022 13:00 -0,6 C -1,0 C -3,9 C 78 % 1025,4 hPa 0,0 l/m 0,00 h 0,00 h 94 W/m 27,8 km/h (4 Bft) 94,43 %
18.12.2022 14:00 -0,6 C -1,1 C -4,1 C 78 % 1024,8 hPa 0,0 l/m 0,00 h 0,00 h 73 W/m 26,8 km/h (4 Bft) 99,51 %
18.12.2022 15:00 -0,7 C -1,2 C -4,4 C 79 % 1024,2 hPa 0,0 l/m 0,00 h 0,00 h 25 W/m 25,8 km/h (4 Bft) 96,08 %
18.12.2022 16:00 -1,0 C -1,7 C -4,7 C 80 % 1023,9 hPa 0,0 l/m 0,00 h 0,00 h 6 W/m 26,4 km/h (4 Bft) 98,01 %
18.12.2022 17:00 -1,4 C -2,1 C -5,0 C 81 % 1023,9 hPa 0,0 l/m 0,00 h 0,00 h 0 W/m 27,1 km/h (4 Bft) 96,72 %
18.12.2022 18:00 -1,5 C -2,2 C -5,0 C 83 % 1023,5 hPa 0,0 l/m 0,00 h 0,00 h 0 W/m 26,2 km/h (4 Bft) 97,86 %
18.12.2022 19:00 -1,4 C -2,0 C -5,0 C 84 % 1023,6 hPa 0,0 l/m 0,00 h 0,00 h 0 W/m 26,8 km/h (4 Bft) 89,95 %
18.12.2022 20:00 -1,4 C -1,7 C -5,0 C 84 % 1023,4 hPa 0,0 l/m 0,00 h 0,00 h 0 W/m 25,5 km/h (4 Bft) 87,86 %
18.12.2022 21:00 -1,3 C -1,7 C -5,0 C 84 % 1023,4 hPa 0,0 l/m 0,00 h 0,03 h 0 W/m 27,4 km/h (4 Bft) 74,68 %
18.12.2022 22:00 -1,1 C -1,7 C -5,0 C 84 % 1023,4 hPa 0,0 l/m 0,00 h 0,10 h 0 W/m 25,5 km/h (4 Bft) 94,06 %
18.12.2022 23:00 -0,9 C -1,7 C -4,8 C 89 % 1022,7 hPa 0,0 l/m 0,00 h 0,67 h 0 W/m 22,5 km/h (4 Bft) 97,90 %
Min-Datum _ 16.12.22 15.12.22 15.12.22 14.12.22 14.12.22 - - - - 12.12.22 12.12.22
_ Min-Zeit 07:16 01:56 00:02 13:48 08:20 - - - - 00:00 18:20
Minimum _ -7,7 C -8,3 C -10,0 C 72 % 1002,0 hPa - - - - 0,0 km/h (0 Bft) 9,09 %
Max-Datum _ 12.12.22 12.12.22 12.12.22 17.12.22 17.12.22 12.12.22 14.12.22 12.12.22 13.12.22 18.12.22 12.12.22
_ Max-Zeit 13:26 12:58 13:10 02:02 23:38 00:00 14:25 11:00 13:10 11:58 00:00
Maximum _ 2,1 C 7,2 C -1,7 C 97 % 1029,4 hPa 0,0 l/m 0,08 h 0,03 h 313 W/m 45,1 km/h
S-SO (6 Bft)
100,00 %
Durchschnitt _ -3,0 C -3,5 C -5,9 C 90 % 1015,0 hPa #0,0 l/m #8:49 h #52 min. 63 W/m 6,0 km/h (2 Bft) 94,93 %
© 2022 W. Hausmann